createdAt,value
2018-11-03T00:01:30.981Z,81.29
2018-11-03T00:03:58.415Z,81.12
2018-11-03T00:06:25.846Z,81.06
2018-11-03T00:08:53.370Z,80.58
2018-11-03T00:11:20.854Z,80.77
2018-11-03T00:13:48.505Z,80.58
2018-11-03T00:16:16.225Z,81.27
2018-11-03T00:18:43.657Z,81.43
2018-11-03T00:21:11.195Z,80.68
2018-11-03T00:23:38.634Z,82.05
2018-11-03T00:26:06.233Z,82.29
2018-11-03T00:28:33.669Z,81.54
2018-11-03T00:31:01.274Z,81.69
2018-11-03T00:33:28.734Z,82.25
2018-11-03T00:35:56.169Z,81.36
2018-11-03T00:38:23.697Z,80.98
2018-11-03T00:40:51.155Z,83.04
2018-11-03T00:43:18.595Z,82.00
2018-11-03T00:45:46.109Z,81.91
2018-11-03T00:48:13.575Z,83.03
2018-11-03T00:50:41.249Z,82.76
2018-11-03T00:53:08.672Z,82.18
2018-11-03T00:55:36.111Z,81.90
2018-11-03T00:58:03.546Z,81.63
2018-11-03T01:00:30.977Z,81.41
2018-11-03T01:02:58.414Z,81.30
2018-11-03T01:05:25.855Z,80.90
2018-11-03T01:07:53.399Z,81.70
2018-11-03T01:10:20.831Z,81.42
2018-11-03T01:12:48.277Z,81.30
2018-11-03T01:15:16.757Z,82.41
2018-11-03T01:17:44.429Z,83.57
2018-11-03T01:20:13.234Z,83.44
2018-11-03T01:22:40.674Z,83.11
2018-11-03T01:25:08.691Z,82.80
2018-11-03T01:27:36.131Z,82.24
2018-11-03T01:30:03.702Z,82.14
2018-11-03T01:32:31.188Z,81.55
2018-11-03T01:34:58.600Z,81.55
2018-11-03T01:37:26.037Z,81.90
2018-11-03T01:39:53.489Z,82.20
2018-11-03T01:42:20.942Z,81.18
2018-11-03T01:44:48.393Z,81.11
2018-11-03T01:47:15.821Z,81.07
2018-11-03T01:49:43.258Z,81.32
2018-11-03T01:52:10.717Z,80.99
2018-11-03T01:54:38.141Z,81.15
2018-11-03T01:57:05.585Z,81.20
2018-11-03T01:59:33.039Z,80.83
2018-11-03T02:02:00.471Z,80.39
2018-11-03T02:04:27.902Z,80.30
2018-11-03T02:06:55.342Z,80.35
2018-11-03T02:09:22.810Z,80.56
2018-11-03T02:11:50.274Z,79.58
2018-11-03T02:14:17.713Z,79.61
2018-11-03T02:16:45.146Z,79.84
2018-11-03T02:19:12.598Z,80.83
2018-11-03T02:21:40.065Z,80.08
2018-11-03T02:24:07.629Z,79.81
2018-11-03T02:26:35.118Z,80.03
2018-11-03T02:29:02.756Z,80.10
2018-11-03T02:31:30.190Z,80.30
2018-11-03T02:33:57.657Z,80.01
2018-11-03T02:36:25.258Z,80.08
2018-11-03T02:38:52.789Z,80.74
2018-11-03T02:41:20.446Z,80.57
2018-11-03T02:43:47.893Z,81.05
2018-11-03T02:46:15.466Z,81.58
2018-11-03T02:48:42.956Z,81.27
2018-11-03T02:51:10.447Z,81.75
2018-11-03T02:53:37.857Z,81.64
2018-11-03T02:56:05.715Z,81.50
2018-11-03T02:58:33.175Z,81.72
2018-11-03T03:01:00.597Z,83.20
2018-11-03T03:03:28.053Z,83.19
2018-11-03T03:05:55.488Z,83.14
2018-11-03T03:08:22.926Z,82.47
2018-11-03T03:10:50.378Z,82.12
2018-11-03T03:13:17.838Z,82.23
2018-11-03T03:15:45.419Z,81.99
2018-11-03T03:18:12.896Z,82.29
2018-11-03T03:20:40.792Z,81.90
2018-11-03T03:23:08.240Z,81.81
2018-11-03T03:25:36.023Z,82.01
2018-11-03T03:28:03.462Z,82.01
2018-11-03T03:30:30.902Z,82.77
2018-11-03T03:32:58.357Z,82.81
2018-11-03T03:35:25.803Z,82.54
2018-11-03T03:37:53.270Z,82.43
2018-11-03T03:40:20.722Z,81.95
2018-11-03T03:42:48.165Z,81.37
2018-11-03T03:45:15.599Z,81.82
2018-11-03T03:47:43.043Z,81.87
2018-11-03T03:50:11.125Z,81.83
2018-11-03T03:52:38.837Z,82.10
2018-11-03T03:55:06.294Z,82.36
2018-11-03T03:57:33.785Z,82.26
2018-11-03T04:00:01.217Z,81.85
2018-11-03T04:02:28.651Z,81.92
2018-11-03T04:04:56.096Z,81.55
2018-11-03T04:07:23.587Z,81.99
2018-11-03T04:09:51.151Z,82.38
2018-11-03T04:12:18.593Z,81.95
2018-11-03T04:14:46.040Z,81.80
2018-11-03T04:17:13.590Z,82.15
2018-11-03T04:19:41.037Z,82.38
2018-11-03T04:22:08.965Z,81.89
2018-11-03T04:24:36.495Z,81.28
2018-11-03T04:27:03.977Z,81.56
2018-11-03T04:29:31.420Z,81.94
2018-11-03T04:31:59.125Z,81.72
2018-11-03T04:34:26.558Z,82.20
2018-11-03T04:36:53.997Z,81.44
2018-11-03T04:39:21.434Z,80.85
2018-11-03T04:41:48.983Z,80.74
2018-11-03T04:44:16.435Z,80.35
2018-11-03T04:46:44.114Z,80.13
2018-11-03T04:49:11.605Z,79.39
2018-11-03T04:51:39.125Z,79.99
2018-11-03T04:54:06.554Z,80.47
2018-11-03T04:56:34.032Z,79.99
2018-11-03T04:59:01.468Z,79.90
2018-11-03T05:01:29.050Z,79.89
2018-11-03T05:03:56.514Z,79.44
2018-11-03T05:06:23.972Z,79.74
2018-11-03T05:08:51.431Z,79.65
2018-11-03T05:11:18.950Z,79.80
2018-11-03T05:13:46.382Z,79.80
2018-11-03T05:16:13.814Z,79.41
2018-11-03T05:18:41.609Z,79.04
2018-11-03T05:21:09.095Z,78.64
2018-11-03T05:23:36.565Z,78.93
2018-11-03T05:26:04.013Z,79.33
2018-11-03T05:28:31.489Z,79.39
2018-11-03T05:30:58.963Z,79.97
2018-11-03T05:33:26.378Z,79.92
2018-11-03T05:35:53.809Z,80.29
2018-11-03T05:38:21.248Z,79.62
2018-11-03T05:40:48.678Z,80.31
2018-11-03T05:43:16.130Z,79.58
2018-11-03T05:45:43.617Z,78.96
2018-11-03T05:48:11.109Z,79.62
2018-11-03T05:50:38.550Z,80.02
2018-11-03T05:53:05.993Z,79.94
2018-11-03T05:55:33.422Z,80.99
2018-11-03T05:58:00.855Z,81.46
2018-11-03T06:00:29.271Z,81.35
2018-11-03T06:02:58.009Z,81.22
2018-11-03T06:05:25.494Z,80.70
2018-11-03T06:07:53.030Z,80.69
2018-11-03T06:10:20.466Z,80.50
2018-11-03T06:12:47.894Z,80.15
2018-11-03T06:15:15.443Z,80.60
2018-11-03T06:17:42.925Z,80.82
2018-11-03T06:20:10.350Z,80.97
2018-11-03T06:22:37.995Z,81.36
2018-11-03T06:25:05.263Z,80.59
2018-11-03T06:27:32.695Z,80.38
2018-11-03T06:30:00.182Z,80.40
2018-11-03T06:32:27.626Z,80.61
2018-11-03T06:34:55.061Z,80.27
2018-11-03T06:37:22.570Z,80.42
2018-11-03T06:39:50.114Z,79.60
2018-11-03T06:42:17.597Z,80.02
2018-11-03T06:44:45.129Z,80.02
2018-11-03T06:47:12.605Z,80.01
2018-11-03T06:49:40.027Z,79.99
2018-11-03T06:52:07.505Z,79.75
2018-11-03T06:54:34.902Z,80.22
2018-11-03T06:57:02.402Z,80.56
2018-11-03T06:59:29.936Z,80.24
2018-11-03T07:01:57.369Z,80.30
2018-11-03T07:04:24.806Z,80.29
2018-11-03T07:06:52.250Z,80.31
2018-11-03T07:09:19.681Z,80.22
2018-11-03T07:11:47.201Z,79.91
2018-11-03T07:14:14.539Z,80.54
2018-11-03T07:16:42.727Z,79.76
2018-11-03T07:19:10.210Z,79.99
2018-11-03T07:21:37.708Z,80.26
2018-11-03T07:24:05.080Z,80.10
2018-11-03T07:26:32.513Z,79.58
2018-11-03T07:29:00.102Z,78.81
2018-11-03T07:31:27.620Z,78.54
2018-11-03T07:33:55.138Z,78.38
2018-11-03T07:36:22.657Z,79.40
2018-11-03T07:38:50.097Z,78.49
2018-11-03T07:41:17.623Z,77.77
2018-11-03T07:43:45.024Z,77.53
2018-11-03T07:46:12.458Z,77.67
2018-11-03T07:48:39.973Z,76.24
2018-11-03T07:51:07.366Z,76.08
2018-11-03T07:53:34.862Z,75.39
2018-11-03T07:56:02.323Z,75.09
2018-11-03T07:58:29.765Z,73.74
2018-11-03T08:00:57.201Z,74.64
2018-11-03T08:03:24.706Z,74.00
2018-11-03T08:05:52.258Z,73.47
2018-11-03T08:08:19.823Z,74.00
2018-11-03T08:10:47.309Z,74.81
2018-11-03T08:13:14.753Z,75.74
2018-11-03T08:15:42.279Z,74.21
2018-11-03T08:18:09.705Z,73.26
2018-11-03T08:20:37.146Z,73.65
2018-11-03T08:23:04.589Z,74.60
2018-11-03T08:25:32.041Z,73.70
2018-11-03T08:27:59.485Z,73.60
2018-11-03T08:30:26.929Z,74.18
2018-11-03T08:32:54.423Z,74.65
2018-11-03T08:35:21.909Z,73.99
2018-11-03T08:37:49.369Z,74.61
2018-11-03T08:40:16.790Z,74.39
2018-11-03T08:42:44.337Z,74.10
2018-11-03T08:45:12.166Z,74.49
2018-11-03T08:47:39.627Z,73.70
2018-11-03T08:50:07.106Z,74.27
2018-11-03T08:52:34.548Z,73.54
2018-11-03T08:55:01.998Z,72.89
2018-11-03T08:57:29.438Z,71.28
2018-11-03T08:59:57.111Z,70.24
2018-11-03T09:02:24.332Z,70.50
2018-11-03T09:04:51.783Z,70.57
2018-11-03T09:07:19.224Z,72.20
2018-11-03T09:09:46.679Z,71.11
2018-11-03T09:12:14.187Z,70.42
2018-11-03T09:14:41.688Z,70.15
2018-11-03T09:17:09.126Z,70.38
2018-11-03T09:19:36.613Z,70.57
2018-11-03T09:22:04.154Z,70.07
2018-11-03T09:24:31.606Z,71.33
2018-11-03T09:26:59.060Z,70.52
2018-11-03T09:29:26.498Z,70.91
2018-11-03T09:31:54.028Z,72.16
2018-11-03T09:34:21.477Z,71.63
2018-11-03T09:36:48.947Z,72.84
2018-11-03T09:39:16.566Z,72.39
2018-11-03T09:41:43.846Z,71.41
2018-11-03T09:44:11.354Z,71.86
2018-11-03T09:46:38.838Z,72.36
2018-11-03T09:49:06.285Z,72.47
2018-11-03T09:51:33.736Z,71.53
2018-11-03T09:54:01.182Z,71.99
2018-11-03T09:56:28.624Z,71.72
2018-11-03T09:58:56.074Z,71.18
2018-11-03T10:01:23.494Z,71.70
2018-11-03T10:03:50.955Z,71.21
2018-11-03T10:06:18.443Z,70.07
2018-11-03T10:08:45.870Z,70.09
2018-11-03T10:11:13.306Z,68.76
2018-11-03T10:13:40.758Z,69.10
2018-11-03T10:16:08.351Z,70.35
2018-11-03T10:18:35.677Z,70.75
2018-11-03T10:21:03.110Z,69.08
2018-11-03T10:23:30.547Z,69.83
2018-11-03T10:25:57.992Z,70.42
2018-11-03T10:28:25.417Z,68.75
2018-11-03T10:30:52.931Z,68.59
2018-11-03T10:33:20.385Z,68.58
2018-11-03T10:35:47.818Z,68.30
2018-11-03T10:38:15.253Z,69.44
2018-11-03T10:40:42.802Z,70.11
2018-11-03T10:43:10.240Z,69.75
2018-11-03T10:45:37.716Z,69.24
2018-11-03T10:48:05.241Z,70.40
2018-11-03T10:50:32.781Z,70.33
2018-11-03T10:53:00.239Z,69.33
2018-11-03T10:55:27.700Z,69.50
2018-11-03T10:57:55.105Z,68.52
2018-11-03T11:00:28.081Z,69.09
2018-11-03T11:03:01.047Z,69.82
2018-11-03T11:05:33.947Z,70.03
2018-11-03T11:08:06.879Z,70.68
2018-11-03T11:10:39.773Z,70.43
2018-11-03T11:13:09.913Z,69.80
2018-11-03T11:15:37.405Z,70.13
2018-11-03T11:18:04.823Z,70.26
2018-11-03T11:20:32.266Z,70.15
2018-11-03T11:22:59.714Z,69.75
2018-11-03T11:25:27.379Z,69.81
2018-11-03T11:27:54.846Z,70.10
2018-11-03T11:30:22.307Z,69.20
2018-11-03T11:32:49.848Z,69.18
2018-11-03T11:35:17.351Z,68.42
2018-11-03T11:37:44.968Z,67.88
2018-11-03T11:40:12.341Z,68.41
2018-11-03T11:42:39.790Z,69.35
2018-11-03T11:45:07.263Z,69.71
2018-11-03T11:47:34.705Z,69.83
2018-11-03T11:50:02.237Z,69.39
2018-11-03T11:52:29.672Z,69.29
2018-11-03T11:54:57.286Z,69.42
2018-11-03T11:57:24.705Z,69.90
2018-11-03T11:59:52.182Z,70.72
2018-11-03T12:02:19.692Z,70.41
2018-11-03T12:04:47.062Z,70.42
2018-11-03T12:07:14.534Z,69.68
2018-11-03T12:09:42.006Z,69.10
2018-11-03T12:12:09.529Z,69.57
2018-11-03T12:14:37.096Z,69.52
2018-11-03T12:17:04.583Z,68.67
2018-11-03T12:19:31.994Z,69.02
2018-11-03T12:21:59.450Z,68.79
2018-11-03T12:24:26.911Z,68.85
2018-11-03T12:26:54.681Z,68.66
2018-11-03T12:29:22.145Z,68.10
2018-11-03T12:31:49.762Z,69.35
2018-11-03T12:34:17.233Z,68.69
2018-11-03T12:36:44.671Z,69.22
2018-11-03T12:39:12.135Z,68.30
2018-11-03T12:41:39.579Z,69.23
2018-11-03T12:44:07.064Z,68.32
2018-11-03T12:46:34.870Z,68.75
2018-11-03T12:49:02.376Z,68.25
2018-11-03T12:51:29.907Z,67.93
2018-11-03T12:53:57.362Z,69.07
2018-11-03T12:56:24.811Z,69.42
2018-11-03T12:58:52.271Z,69.24
2018-11-03T13:01:19.840Z,68.93
2018-11-03T13:03:47.394Z,69.32
2018-11-03T13:06:14.884Z,68.87
2018-11-03T13:08:42.722Z,69.46
2018-11-03T13:11:10.283Z,69.66
2018-11-03T13:13:37.733Z,70.48
2018-11-03T13:16:05.226Z,70.00
2018-11-03T13:18:32.829Z,69.79
2018-11-03T13:21:00.253Z,70.09
2018-11-03T13:23:27.861Z,70.75
2018-11-03T13:25:55.363Z,70.63
2018-11-03T13:28:22.799Z,70.96
2018-11-03T13:30:50.249Z,70.69
2018-11-03T13:33:17.804Z,71.49
2018-11-03T13:35:45.270Z,71.81
2018-11-03T13:38:12.725Z,72.28
2018-11-03T13:40:40.194Z,72.19
2018-11-03T13:43:07.631Z,72.02
2018-11-03T13:45:35.082Z,72.21
2018-11-03T13:48:02.549Z,71.26
2018-11-03T13:50:30.000Z,71.73
2018-11-03T13:52:57.438Z,71.53
2018-11-03T13:55:25.070Z,72.03
2018-11-03T13:57:52.517Z,71.47
2018-11-03T14:00:20.123Z,72.02
2018-11-03T14:02:48.398Z,71.96
2018-11-03T14:05:15.833Z,71.30
2018-11-03T14:07:43.276Z,71.73
2018-11-03T14:10:12.029Z,71.18
2018-11-03T14:12:39.507Z,72.58
2018-11-03T14:15:07.127Z,71.75
2018-11-03T14:17:34.665Z,72.19
2018-11-03T14:20:02.121Z,72.46
2018-11-03T14:22:29.560Z,72.36
2018-11-03T14:24:57.067Z,72.57
2018-11-03T14:27:24.510Z,72.23
2018-11-03T14:29:51.967Z,72.42
2018-11-03T14:32:19.421Z,71.85
2018-11-03T14:34:46.905Z,71.92
2018-11-03T14:37:14.353Z,72.61
2018-11-03T14:39:41.794Z,72.33
2018-11-03T14:42:09.297Z,72.56
2018-11-03T14:44:36.738Z,72.85
2018-11-03T14:47:04.201Z,73.07
2018-11-03T14:49:31.782Z,72.70
2018-11-03T14:51:59.317Z,72.33
2018-11-03T14:54:26.787Z,72.48
2018-11-03T14:56:54.238Z,73.20
2018-11-03T14:59:21.685Z,73.07
2018-11-03T15:01:49.131Z,72.71
2018-11-03T15:04:16.593Z,72.25
2018-11-03T15:06:44.038Z,72.25
2018-11-03T15:09:11.497Z,72.36
2018-11-03T15:11:38.982Z,73.15
2018-11-03T15:14:07.319Z,73.41
2018-11-03T15:16:34.580Z,73.25
2018-11-03T15:19:02.086Z,72.82
2018-11-03T15:21:29.550Z,72.94
2018-11-03T15:23:56.995Z,73.12
2018-11-03T15:26:24.490Z,73.06
2018-11-03T15:28:51.978Z,72.86
2018-11-03T15:31:19.446Z,74.34
2018-11-03T15:33:46.882Z,73.57
2018-11-03T15:36:14.340Z,73.82
2018-11-03T15:38:41.771Z,73.80
2018-11-03T15:41:09.230Z,74.44
2018-11-03T15:43:36.670Z,74.20
2018-11-03T15:46:04.106Z,73.84
2018-11-03T15:48:31.601Z,73.75
2018-11-03T15:50:59.032Z,73.82
2018-11-03T15:53:26.465Z,72.76
2018-11-03T15:55:53.916Z,72.78
2018-11-03T15:58:21.366Z,73.38
2018-11-03T16:00:48.815Z,72.53
2018-11-03T16:03:16.514Z,72.41
2018-11-03T16:05:43.959Z,72.92
2018-11-03T16:08:11.409Z,72.29
2018-11-03T16:10:38.902Z,72.51
2018-11-03T16:13:06.342Z,72.81
2018-11-03T16:15:33.791Z,72.43
2018-11-03T16:18:01.239Z,73.18
2018-11-03T16:20:28.961Z,72.63
2018-11-03T16:22:56.439Z,72.58
2018-11-03T16:25:23.937Z,73.05
2018-11-03T16:27:51.525Z,72.97
2018-11-03T16:30:19.585Z,73.09
2018-11-03T16:32:47.153Z,73.16
2018-11-03T16:35:14.541Z,73.28
2018-11-03T16:37:42.326Z,72.87
2018-11-03T16:40:11.310Z,73.03
2018-11-03T16:42:38.766Z,73.20
2018-11-03T16:45:06.752Z,73.57
2018-11-03T16:47:34.373Z,73.53
2018-11-03T16:50:01.826Z,73.88
2018-11-03T16:52:29.321Z,73.47
2018-11-03T16:54:56.704Z,73.99
2018-11-03T16:57:24.232Z,73.62
2018-11-03T16:59:51.663Z,73.90
2018-11-03T17:02:19.106Z,73.95
2018-11-03T17:04:47.256Z,74.00
2018-11-03T17:07:14.706Z,74.26
2018-11-03T17:09:42.143Z,73.90
2018-11-03T17:12:09.590Z,74.70
2018-11-03T17:14:37.043Z,74.44
2018-11-03T17:17:04.543Z,74.66
2018-11-03T17:19:32.102Z,74.97
2018-11-03T17:21:59.564Z,75.50
2018-11-03T17:24:27.010Z,75.00
2018-11-03T17:26:54.481Z,75.01
2018-11-03T17:29:21.934Z,74.34
2018-11-03T17:31:49.387Z,75.23
2018-11-03T17:34:16.953Z,74.68
2018-11-03T17:36:44.391Z,74.97
2018-11-03T17:39:12.360Z,75.36
2018-11-03T17:41:39.837Z,75.21
2018-11-03T17:44:07.339Z,75.61
2018-11-03T17:46:34.962Z,75.82
2018-11-03T17:49:02.402Z,76.89
2018-11-03T17:51:29.869Z,76.31
2018-11-03T17:53:57.329Z,76.58
2018-11-03T17:56:24.766Z,76.63
2018-11-03T17:58:52.230Z,76.28
2018-11-03T18:01:19.786Z,75.76
2018-11-03T18:03:47.145Z,75.30
2018-11-03T18:06:14.584Z,75.25
2018-11-03T18:08:42.010Z,75.57
2018-11-03T18:11:09.447Z,76.02
2018-11-03T18:13:37.267Z,76.50
2018-11-03T18:16:04.711Z,76.62
2018-11-03T18:18:32.222Z,76.01
2018-11-03T18:20:59.655Z,76.08
2018-11-03T18:23:27.669Z,76.32
2018-11-03T18:25:55.154Z,76.40
2018-11-03T18:28:22.611Z,76.65
2018-11-03T18:30:50.074Z,76.10
2018-11-03T18:33:17.537Z,76.79
2018-11-03T18:35:44.885Z,76.27
2018-11-03T18:38:12.352Z,75.99
2018-11-03T18:40:39.771Z,76.04
2018-11-03T18:43:07.301Z,76.64
2018-11-03T18:45:34.739Z,76.09
2018-11-03T18:48:02.193Z,76.47
2018-11-03T18:50:29.638Z,76.86
2018-11-03T18:52:57.159Z,76.39
2018-11-03T18:55:24.641Z,76.62
2018-11-03T18:57:52.045Z,76.42
2018-11-03T19:00:19.546Z,76.57
2018-11-03T19:02:46.982Z,76.71
2018-11-03T19:05:14.429Z,76.94
2018-11-03T19:07:41.878Z,77.43
2018-11-03T19:10:09.787Z,76.76
2018-11-03T19:12:37.324Z,76.71
2018-11-03T19:15:04.778Z,77.34
2018-11-03T19:17:32.216Z,77.26
2018-11-03T19:19:59.665Z,77.29
2018-11-03T19:22:27.094Z,77.43
2018-11-03T19:24:54.898Z,77.68
2018-11-03T19:27:22.337Z,77.50
2018-11-03T19:29:49.940Z,77.27
2018-11-03T19:32:17.538Z,76.75
2018-11-03T19:34:44.943Z,76.47
2018-11-03T19:37:12.393Z,76.31
2018-11-03T19:39:39.849Z,76.45
2018-11-03T19:42:07.305Z,77.23
2018-11-03T19:44:34.769Z,76.92
2018-11-03T19:47:02.210Z,76.97
2018-11-03T19:49:29.691Z,77.31
2018-11-03T19:51:57.158Z,76.69
2018-11-03T19:54:24.618Z,76.62
2018-11-03T19:56:52.054Z,77.06
2018-11-03T19:59:19.490Z,77.81
2018-11-03T20:01:46.926Z,77.40
2018-11-03T20:04:14.362Z,77.45
2018-11-03T20:06:41.806Z,77.46
2018-11-03T20:09:09.342Z,77.61
2018-11-03T20:11:36.796Z,77.52
2018-11-03T20:14:04.456Z,77.54
2018-11-03T20:16:31.926Z,77.37
2018-11-03T20:18:59.412Z,76.85
2018-11-03T20:21:26.914Z,76.37
2018-11-03T20:23:54.362Z,76.44
2018-11-03T20:26:21.946Z,76.90
2018-11-03T20:28:49.313Z,76.70
2018-11-03T20:31:16.758Z,76.88
2018-11-03T20:33:44.202Z,76.69
2018-11-03T20:36:11.646Z,76.63
2018-11-03T20:38:39.099Z,76.72
2018-11-03T20:41:06.542Z,76.58
2018-11-03T20:43:33.986Z,76.05
2018-11-03T20:46:01.430Z,75.81
2018-11-03T20:48:28.866Z,76.09
2018-11-03T20:51:01.590Z,76.17
2018-11-03T20:53:29.030Z,76.85
2018-11-03T20:55:56.472Z,76.98
2018-11-03T20:58:23.927Z,76.58
2018-11-03T21:00:51.440Z,76.51
2018-11-03T21:03:18.862Z,76.42
2018-11-03T21:05:46.302Z,76.13
2018-11-03T21:08:13.859Z,76.80
2018-11-03T21:10:41.223Z,76.85
2018-11-03T21:13:08.666Z,76.96
2018-11-03T21:15:36.118Z,76.75
2018-11-03T21:18:03.817Z,76.87
2018-11-03T21:20:31.322Z,76.27
2018-11-03T21:22:58.758Z,76.30
2018-11-03T21:25:26.206Z,76.21
2018-11-03T21:27:53.647Z,76.57
2018-11-03T21:30:21.082Z,76.87
2018-11-03T21:32:48.630Z,76.07
2018-11-03T21:35:16.053Z,76.53
2018-11-03T21:37:43.498Z,76.86
2018-11-03T21:40:11.011Z,77.22
2018-11-03T21:42:38.582Z,76.89
2018-11-03T21:45:06.022Z,76.42
2018-11-03T21:47:33.471Z,76.79
2018-11-03T21:50:00.909Z,76.65
2018-11-03T21:52:28.477Z,76.31
2018-11-03T21:54:55.926Z,76.90
2018-11-03T21:57:23.385Z,77.28
2018-11-03T21:59:50.837Z,77.59
2018-11-03T22:02:18.398Z,77.07
2018-11-03T22:04:46.013Z,77.23
2018-11-03T22:07:13.459Z,76.89
2018-11-03T22:09:40.902Z,76.90
2018-11-03T22:12:08.348Z,77.43
2018-11-03T22:14:35.803Z,77.27
2018-11-03T22:17:03.253Z,77.33
2018-11-03T22:19:30.688Z,77.07
2018-11-03T22:21:58.134Z,77.46
2018-11-03T22:24:25.570Z,77.56
2018-11-03T22:26:53.015Z,77.39
2018-11-03T22:29:20.465Z,77.60
2018-11-03T22:31:47.930Z,77.68
2018-11-03T22:34:15.430Z,77.89
2018-11-03T22:36:42.869Z,77.86
2018-11-03T22:39:10.301Z,77.86
2018-11-03T22:41:38.138Z,78.32
2018-11-03T22:44:05.581Z,78.67
2018-11-03T22:46:33.062Z,79.10
2018-11-03T22:49:01.206Z,78.49
2018-11-03T22:51:28.748Z,78.84
2018-11-03T22:53:56.109Z,78.65
2018-11-03T22:56:23.630Z,78.08
2018-11-03T22:58:51.074Z,78.12
2018-11-03T23:01:18.542Z,78.11
2018-11-03T23:03:45.989Z,78.25
2018-11-03T23:06:13.453Z,78.58
2018-11-03T23:08:40.886Z,78.64
2018-11-03T23:11:08.329Z,78.27
2018-11-03T23:13:35.769Z,78.63
2018-11-03T23:16:03.207Z,79.30
2018-11-03T23:18:30.646Z,79.61
2018-11-03T23:20:58.094Z,79.14
2018-11-03T23:23:25.549Z,79.83
2018-11-03T23:25:53.012Z,80.13
2018-11-03T23:28:20.455Z,80.26
2018-11-03T23:30:47.946Z,79.46
2018-11-03T23:33:15.406Z,80.28
2018-11-03T23:35:42.846Z,80.05
2018-11-03T23:38:10.343Z,79.79
2018-11-03T23:40:37.774Z,79.55
2018-11-03T23:43:05.331Z,79.48
2018-11-03T23:45:32.870Z,79.49
2018-11-03T23:48:00.306Z,79.43
2018-11-03T23:50:27.766Z,79.35
2018-11-03T23:52:55.189Z,79.19
2018-11-03T23:55:22.627Z,79.22
2018-11-03T23:57:50.078Z,79.34
